sensor_id;sensor_type;location;lat;lon;timestamp;P1;P2;P0;N1;N25;N10
84107;NextPM;74203;50.730;1.626;2024-03-08T00:00:48;64.85;48.00;43.20;639.50;641.50;642.00
84107;NextPM;74203;50.730;1.626;2024-03-08T00:02:55;63.80;47.20;42.50;635.00;637.00;638.00
84107;NextPM;74203;50.730;1.626;2024-03-08T00:05:03;66.90;49.45;44.55;661.50;664.50;664.50
84107;NextPM;74203;50.730;1.626;2024-03-08T00:07:12;66.45;49.20;44.30;661.50;663.50;664.50
84107;NextPM;74203;50.730;1.626;2024-03-08T00:09:19;63.70;47.15;42.45;632.50;635.00;635.00
84107;NextPM;74203;50.730;1.626;2024-03-08T00:11:27;64.90;48.05;43.30;640.00;642.00;642.50
84107;NextPM;74203;50.730;1.626;2024-03-08T00:13:34;64.90;48.05;43.25;648.50;650.50;651.00
84107;NextPM;74203;50.730;1.626;2024-03-08T00:15:42;64.85;48.00;43.20;639.50;642.00;642.00
84107;NextPM;74203;50.730;1.626;2024-03-08T00:17:49;64.60;47.80;43.05;644.00;646.00;647.00
84107;NextPM;74203;50.730;1.626;2024-03-08T00:19:57;64.15;47.45;42.75;637.50;640.00;640.50
84107;NextPM;74203;50.730;1.626;2024-03-08T00:22:04;62.65;46.35;41.75;624.00;626.00;626.00
84107;NextPM;74203;50.730;1.626;2024-03-08T00:24:12;63.60;47.00;42.35;632.00;634.00;634.50
84107;NextPM;74203;50.730;1.626;2024-03-08T00:26:20;62.70;46.40;41.80;625.50;627.50;628.50
84107;NextPM;74203;50.730;1.626;2024-03-08T00:28:27;63.50;47.00;42.30;634.00;636.50;636.50
84107;NextPM;74203;50.730;1.626;2024-03-08T00:30:37;62.20;46.00;41.45;616.50;619.00;619.00
84107;NextPM;74203;50.730;1.626;2024-03-08T00:32:45;63.30;46.80;42.15;636.50;639.00;639.00
84107;NextPM;74203;50.730;1.626;2024-03-08T00:34:56;62.85;46.50;41.85;625.50;628.00;628.00
84107;NextPM;74203;50.730;1.626;2024-03-08T00:37:03;62.20;45.95;41.40;625.00;627.50;627.50
84107;NextPM;74203;50.730;1.626;2024-03-08T00:39:12;62.10;45.95;41.35;613.00;615.50;615.50
84107;NextPM;74203;50.730;1.626;2024-03-08T00:41:19;61.05;45.15;40.65;605.50;607.50;608.00
84107;NextPM;74203;50.730;1.626;2024-03-08T00:43:27;62.90;46.55;41.95;618.50;621.00;621.00
84107;NextPM;74203;50.730;1.626;2024-03-08T00:45:34;60.90;45.05;40.60;607.00;609.50;610.00
84107;NextPM;74203;50.730;1.626;2024-03-08T00:47:42;61.85;45.75;41.25;618.50;621.00;621.50
84107;NextPM;74203;50.730;1.626;2024-03-08T00:49:49;60.45;44.70;40.25;607.50;610.00;610.00
84107;NextPM;74203;50.730;1.626;2024-03-08T00:51:57;61.90;45.80;41.25;612.50;615.00;615.00
84107;NextPM;74203;50.730;1.626;2024-03-08T00:54:05;60.45;44.70;40.25;598.50;601.50;601.50
84107;NextPM;74203;50.730;1.626;2024-03-08T00:56:12;61.35;45.40;40.85;608.50;610.50;611.00
84107;NextPM;74203;50.730;1.626;2024-03-08T00:58:20;60.50;44.75;40.30;603.50;605.50;606.00
84107;NextPM;74203;50.730;1.626;2024-03-08T01:00:27;60.05;44.45;40.05;593.50;596.00;596.50
84107;NextPM;74203;50.730;1.626;2024-03-08T01:02:35;60.40;44.65;40.25;603.00;605.00;605.50
84107;NextPM;74203;50.730;1.626;2024-03-08T01:04:42;59.60;44.10;39.70;589.50;591.00;591.50
84107;NextPM;74203;50.730;1.626;2024-03-08T01:06:50;59.95;44.35;39.95;595.50;598.00;598.00
84107;NextPM;74203;50.730;1.626;2024-03-08T01:08:57;58.90;43.60;39.25;585.00;587.50;587.50
84107;NextPM;74203;50.730;1.626;2024-03-08T01:11:05;58.75;43.45;39.15;585.50;587.50;588.00
84107;NextPM;74203;50.730;1.626;2024-03-08T01:13:12;58.35;43.15;38.90;577.50;579.50;580.00
84107;NextPM;74203;50.730;1.626;2024-03-08T01:15:20;58.95;43.60;39.25;586.00;588.00;588.50
84107;NextPM;74203;50.730;1.626;2024-03-08T01:17:27;58.45;43.20;38.95;585.50;587.50;588.00
84107;NextPM;74203;50.730;1.626;2024-03-08T01:19:35;59.50;44.05;39.65;590.50;592.50;593.00
84107;NextPM;74203;50.730;1.626;2024-03-08T01:21:43;57.05;42.20;38.05;572.00;574.00;574.00
84107;NextPM;74203;50.730;1.626;2024-03-08T01:23:50;56.75;42.00;37.85;565.00;566.50;567.50
84107;NextPM;74203;50.730;1.626;2024-03-08T01:25:58;56.25;41.60;37.50;555.00;556.50;557.00
84107;NextPM;74203;50.730;1.626;2024-03-08T01:28:06;57.75;42.70;38.45;573.50;575.50;575.50
84107;NextPM;74203;50.730;1.626;2024-03-08T01:30:13;56.75;42.00;37.85;561.00;563.00;563.50
84107;NextPM;74203;50.730;1.626;2024-03-08T01:32:21;56.15;41.55;37.40;560.00;562.50;562.50
84107;NextPM;74203;50.730;1.626;2024-03-08T01:34:28;57.10;42.25;38.00;567.00;569.00;569.00
84107;NextPM;74203;50.730;1.626;2024-03-08T01:36:36;58.30;43.10;38.80;576.00;578.50;578.50
84107;NextPM;74203;50.730;1.626;2024-03-08T01:38:44;58.15;43.05;38.75;578.00;580.50;581.00
84107;NextPM;74203;50.730;1.626;2024-03-08T01:40:51;58.15;43.00;38.75;578.50;580.50;581.00
84107;NextPM;74203;50.730;1.626;2024-03-08T01:42:58;57.45;42.55;38.30;573.50;575.50;576.50
84107;NextPM;74203;50.730;1.626;2024-03-08T01:45:26;58.35;43.20;38.90;580.00;582.50;583.00
84107;NextPM;74203;50.730;1.626;2024-03-08T01:47:33;59.35;43.85;39.55;589.00;591.50;591.50
84107;NextPM;74203;50.730;1.626;2024-03-08T01:49:42;59.30;43.90;39.55;588.00;589.50;590.00
84107;NextPM;74203;50.730;1.626;2024-03-08T01:51:50;58.50;43.25;39.00;580.00;582.50;582.50
84107;NextPM;74203;50.730;1.626;2024-03-08T01:53:59;59.70;44.20;39.80;590.00;592.00;592.00
84107;NextPM;74203;50.730;1.626;2024-03-08T01:56:09;60.05;44.40;40.00;594.00;596.50;597.00
84107;NextPM;74203;50.730;1.626;2024-03-08T01:58:17;60.05;44.45;40.00;597.00;599.00;599.00
84107;NextPM;74203;50.730;1.626;2024-03-08T02:00:26;60.05;44.45;40.05;599.00;601.00;601.00
84107;NextPM;74203;50.730;1.626;2024-03-08T02:02:34;59.15;43.75;39.45;594.50;597.00;597.00
84107;NextPM;74203;50.730;1.626;2024-03-08T02:04:42;60.80;45.00;40.55;602.00;605.00;605.00
84107;NextPM;74203;50.730;1.626;2024-03-08T02:06:50;61.05;45.15;40.65;600.50;602.50;603.00
84107;NextPM;74203;50.730;1.626;2024-03-08T02:08:57;59.55;44.05;39.65;592.00;594.00;594.50
84107;NextPM;74203;50.730;1.626;2024-03-08T02:11:06;61.00;45.15;40.65;608.00;610.50;610.50
84107;NextPM;74203;50.730;1.626;2024-03-08T02:13:14;62.25;46.05;41.50;619.50;621.50;621.50
84107;NextPM;74203;50.730;1.626;2024-03-08T02:15:22;61.55;45.55;41.00;606.00;608.50;608.50
84107;NextPM;74203;50.730;1.626;2024-03-08T02:17:29;62.55;46.25;41.70;618.00;620.50;621.00
84107;NextPM;74203;50.730;1.626;2024-03-08T02:19:37;62.50;46.20;41.65;616.50;618.50;619.00
84107;NextPM;74203;50.730;1.626;2024-03-08T02:21:44;60.80;45.00;40.50;603.50;606.00;606.00
84107;NextPM;74203;50.730;1.626;2024-03-08T02:23:52;62.10;45.90;41.35;616.50;619.50;619.50
84107;NextPM;74203;50.730;1.626;2024-03-08T02:26:00;61.85;45.70;41.25;608.50;610.50;611.00
84107;NextPM;74203;50.730;1.626;2024-03-08T02:28:08;61.45;45.45;41.00;605.50;608.00;608.00
84107;NextPM;74203;50.730;1.626;2024-03-08T02:30:17;59.95;44.35;39.95;595.00;598.00;598.00
84107;NextPM;74203;50.730;1.626;2024-03-08T02:32:25;60.60;44.80;40.40;602.00;604.00;604.50
84107;NextPM;74203;50.730;1.626;2024-03-08T02:34:33;60.75;44.95;40.50;604.00;606.50;607.00
84107;NextPM;74203;50.730;1.626;2024-03-08T02:36:40;59.35;43.90;39.55;589.00;591.00;591.00
84107;NextPM;74203;50.730;1.626;2024-03-08T02:38:48;58.10;42.95;38.70;578.50;581.00;581.50
84107;NextPM;74203;50.730;1.626;2024-03-08T02:40:55;57.70;42.65;38.45;566.50;568.50;569.50
84107;NextPM;74203;50.730;1.626;2024-03-08T02:43:03;57.60;42.60;38.40;579.50;581.50;582.00
84107;NextPM;74203;50.730;1.626;2024-03-08T02:45:11;57.95;42.85;38.60;576.50;578.50;578.50
84107;NextPM;74203;50.730;1.626;2024-03-08T02:47:18;58.00;42.95;38.65;577.50;579.00;579.50
84107;NextPM;74203;50.730;1.626;2024-03-08T02:49:26;57.70;42.65;38.45;569.00;571.00;571.50
84107;NextPM;74203;50.730;1.626;2024-03-08T02:51:34;57.15;42.25;38.05;567.00;568.50;569.50
84107;NextPM;74203;50.730;1.626;2024-03-08T02:53:41;56.85;42.05;37.85;564.00;566.00;566.00
84107;NextPM;74203;50.730;1.626;2024-03-08T02:55:49;55.30;40.90;36.85;551.00;553.00;553.50
84107;NextPM;74203;50.730;1.626;2024-03-08T02:57:56;56.25;41.60;37.50;561.00;563.50;563.50
84107;NextPM;74203;50.730;1.626;2024-03-08T03:00:04;56.20;41.55;37.45;561.00;563.00;563.50
84107;NextPM;74203;50.730;1.626;2024-03-08T03:02:13;56.15;41.55;37.40;552.00;554.00;554.50
84107;NextPM;74203;50.730;1.626;2024-03-08T03:04:20;55.60;41.15;37.05;551.00;553.00;553.50
84107;NextPM;74203;50.730;1.626;2024-03-08T03:06:28;56.30;41.65;37.50;553.00;555.00;555.00
84107;NextPM;74203;50.730;1.626;2024-03-08T03:08:35;55.20;40.85;36.80;552.50;554.50;555.50
84107;NextPM;74203;50.730;1.626;2024-03-08T03:10:43;55.35;40.95;36.85;551.50;554.00;554.00
84107;NextPM;74203;50.730;1.626;2024-03-08T03:12:50;54.60;40.40;36.35;543.00;544.50;545.50
84107;NextPM;74203;50.730;1.626;2024-03-08T03:14:58;55.20;40.80;36.80;553.50;556.00;556.00
84107;NextPM;74203;50.730;1.626;2024-03-08T03:17:05;54.20;40.10;36.15;539.00;541.00;542.00
84107;NextPM;74203;50.730;1.626;2024-03-08T03:19:13;54.85;40.60;36.60;552.50;554.50;554.50
84107;NextPM;74203;50.730;1.626;2024-03-08T03:21:20;54.70;40.45;36.45;540.00;542.00;542.50
84107;NextPM;74203;50.730;1.626;2024-03-08T03:23:28;56.00;41.45;37.30;554.50;557.00;557.00
84107;NextPM;74203;50.730;1.626;2024-03-08T03:25:36;54.90;40.60;36.55;546.50;548.50;549.00
84107;NextPM;74203;50.730;1.626;2024-03-08T03:27:43;54.55;40.35;36.35;542.50;543.50;544.00
84107;NextPM;74203;50.730;1.626;2024-03-08T03:29:50;54.60;40.40;36.35;543.50;545.50;545.50
84107;NextPM;74203;50.730;1.626;2024-03-08T03:31:58;55.20;40.85;36.80;550.00;552.00;552.50
84107;NextPM;74203;50.730;1.626;2024-03-08T03:34:05;54.65;40.45;36.45;547.00;549.50;549.50
84107;NextPM;74203;50.730;1.626;2024-03-08T03:36:13;55.80;41.25;37.20;557.00;559.00;559.00
84107;NextPM;74203;50.730;1.626;2024-03-08T03:38:20;55.70;41.20;37.10;549.00;551.00;551.50
84107;NextPM;74203;50.730;1.626;2024-03-08T03:40:28;55.70;41.25;37.10;554.00;556.50;557.00
84107;NextPM;74203;50.730;1.626;2024-03-08T03:42:35;55.20;40.85;36.80;556.50;558.50;559.00
84107;NextPM;74203;50.730;1.626;2024-03-08T03:44:43;57.10;42.20;38.05;565.50;567.50;567.50
84107;NextPM;74203;50.730;1.626;2024-03-08T03:46:52;55.65;41.20;37.05;551.00;553.50;554.00
84107;NextPM;74203;50.730;1.626;2024-03-08T03:48:59;55.25;40.85;36.85;547.00;549.00;549.50
84107;NextPM;74203;50.730;1.626;2024-03-08T03:51:07;54.90;40.60;36.55;548.00;549.50;550.50
84107;NextPM;74203;50.730;1.626;2024-03-08T03:53:14;54.70;40.45;36.40;545.50;547.00;547.50
84107;NextPM;74203;50.730;1.626;2024-03-08T03:55:22;53.55;39.65;35.70;531.00;533.50;533.50
84107;NextPM;74203;50.730;1.626;2024-03-08T03:57:29;55.20;40.85;36.80;544.00;545.50;546.00
84107;NextPM;74203;50.730;1.626;2024-03-08T03:59:37;54.75;40.55;36.50;547.50;550.00;550.00
84107;NextPM;74203;50.730;1.626;2024-03-08T04:01:45;55.50;41.05;37.00;548.50;550.00;550.00
84107;NextPM;74203;50.730;1.626;2024-03-08T04:03:52;54.15;40.05;36.10;540.50;542.00;542.50
84107;NextPM;74203;50.730;1.626;2024-03-08T04:06:00;54.55;40.40;36.35;542.00;544.50;545.00
84107;NextPM;74203;50.730;1.626;2024-03-08T04:08:08;54.95;40.65;36.65;550.00;552.00;552.00
84107;NextPM;74203;50.730;1.626;2024-03-08T04:10:15;54.85;40.55;36.55;544.50;546.50;547.00
84107;NextPM;74203;50.730;1.626;2024-03-08T04:12:23;52.90;39.10;35.25;532.50;534.50;535.00
84107;NextPM;74203;50.730;1.626;2024-03-08T04:14:30;54.55;40.35;36.35;546.50;548.50;548.50
84107;NextPM;74203;50.730;1.626;2024-03-08T04:16:38;54.65;40.40;36.45;540.50;542.50;543.00
84107;NextPM;74203;50.730;1.626;2024-03-08T04:18:45;54.65;40.40;36.40;546.50;548.00;548.50
84107;NextPM;74203;50.730;1.626;2024-03-08T04:20:52;55.40;41.00;36.95;551.50;553.00;553.50
84107;NextPM;74203;50.730;1.626;2024-03-08T04:23:00;55.10;40.75;36.70;549.50;552.00;552.50
84107;NextPM;74203;50.730;1.626;2024-03-08T04:25:08;55.40;41.00;36.95;551.50;553.00;553.50
84107;NextPM;74203;50.730;1.626;2024-03-08T04:27:16;54.55;40.35;36.35;542.50;544.50;545.00
84107;NextPM;74203;50.730;1.626;2024-03-08T04:29:23;55.50;41.05;36.95;553.00;555.00;555.00
84107;NextPM;74203;50.730;1.626;2024-03-08T04:31:31;55.55;41.05;37.00;555.50;557.00;557.00
84107;NextPM;74203;50.730;1.626;2024-03-08T04:33:38;56.35;41.70;37.55;561.00;563.00;563.00
84107;NextPM;74203;50.730;1.626;2024-03-08T04:35:46;55.70;41.20;37.10;554.00;556.50;556.50
84107;NextPM;74203;50.730;1.626;2024-03-08T04:37:53;55.70;41.20;37.15;554.00;555.50;556.00
84107;NextPM;74203;50.730;1.626;2024-03-08T04:40:01;56.60;41.90;37.70;563.00;565.00;565.00
84107;NextPM;74203;50.730;1.626;2024-03-08T04:42:09;56.95;42.15;37.95;568.50;570.50;570.50
84107;NextPM;74203;50.730;1.626;2024-03-08T04:44:17;56.20;41.55;37.45;555.00;557.00;557.00
84107;NextPM;74203;50.730;1.626;2024-03-08T04:46:25;55.40;40.95;36.90;554.00;555.50;556.00
84107;NextPM;74203;50.730;1.626;2024-03-08T04:48:32;56.35;41.70;37.60;563.00;565.00;565.50
84107;NextPM;74203;50.730;1.626;2024-03-08T04:50:40;58.20;43.05;38.75;576.00;578.00;578.50
84107;NextPM;74203;50.730;1.626;2024-03-08T04:52:47;56.55;41.80;37.70;556.00;559.00;559.50
84107;NextPM;74203;50.730;1.626;2024-03-08T04:54:55;57.10;42.20;38.05;573.50;576.00;576.00
84107;NextPM;74203;50.730;1.626;2024-03-08T04:57:02;56.35;41.70;37.55;557.50;559.50;560.00
84107;NextPM;74203;50.730;1.626;2024-03-08T04:59:10;58.30;43.15;38.85;580.00;582.50;582.50
84107;NextPM;74203;50.730;1.626;2024-03-08T05:01:17;56.25;41.60;37.50;561.00;562.50;563.50
84107;NextPM;74203;50.730;1.626;2024-03-08T05:03:24;55.75;41.25;37.15;557.00;559.50;559.50
84107;NextPM;74203;50.730;1.626;2024-03-08T05:05:32;57.75;42.70;38.45;575.00;577.00;577.00
84107;NextPM;74203;50.730;1.626;2024-03-08T05:07:39;57.30;42.40;38.15;572.00;574.00;574.00
84107;NextPM;74203;50.730;1.626;2024-03-08T05:09:47;57.85;42.80;38.55;570.50;572.00;573.00
84107;NextPM;74203;50.730;1.626;2024-03-08T05:11:55;58.80;43.55;39.20;588.50;591.00;591.00
84107;NextPM;74203;50.730;1.626;2024-03-08T05:14:02;56.70;41.95;37.80;567.50;570.00;570.00
84107;NextPM;74203;50.730;1.626;2024-03-08T05:16:10;57.40;42.45;38.20;567.00;569.50;570.00
84107;NextPM;74203;50.730;1.626;2024-03-08T05:18:17;58.40;43.25;38.90;579.50;582.00;582.50
84107;NextPM;74203;50.730;1.626;2024-03-08T05:20:25;58.10;42.95;38.70;577.00;579.00;579.50
84107;NextPM;74203;50.730;1.626;2024-03-08T05:22:32;56.35;41.70;37.55;565.00;567.00;568.00
84107;NextPM;74203;50.730;1.626;2024-03-08T05:24:40;57.75;42.70;38.50;577.00;579.50;580.00
84107;NextPM;74203;50.730;1.626;2024-03-08T05:26:48;58.70;43.45;39.10;589.00;591.00;591.00
84107;NextPM;74203;50.730;1.626;2024-03-08T05:28:55;59.40;43.95;39.60;594.00;596.50;597.00
84107;NextPM;74203;50.730;1.626;2024-03-08T05:31:03;58.10;43.00;38.70;579.50;581.50;582.00
84107;NextPM;74203;50.730;1.626;2024-03-08T05:33:10;57.50;42.55;38.30;572.50;575.00;575.50
84107;NextPM;74203;50.730;1.626;2024-03-08T05:35:18;58.45;43.20;38.90;584.50;587.00;587.00
84107;NextPM;74203;50.730;1.626;2024-03-08T05:37:25;58.35;43.15;38.85;582.00;584.00;584.50
84107;NextPM;74203;50.730;1.626;2024-03-08T05:39:32;58.85;43.50;39.20;593.50;595.50;596.00
84107;NextPM;74203;50.730;1.626;2024-03-08T05:41:40;60.90;45.05;40.60;605.50;608.50;608.50
84107;NextPM;74203;50.730;1.626;2024-03-08T05:43:48;59.15;43.80;39.45;583.50;585.50;586.00
84107;NextPM;74203;50.730;1.626;2024-03-08T05:45:56;58.75;43.45;39.15;580.00;582.00;582.50
84107;NextPM;74203;50.730;1.626;2024-03-08T05:48:03;59.25;43.80;39.45;588.50;591.00;591.50
84107;NextPM;74203;50.730;1.626;2024-03-08T05:50:12;60.15;44.50;40.10;592.50;594.50;595.50
84107;NextPM;74203;50.730;1.626;2024-03-08T05:52:19;57.90;42.90;38.60;577.50;579.50;580.00
84107;NextPM;74203;50.730;1.626;2024-03-08T05:54:26;58.70;43.45;39.10;586.50;589.00;589.50
84107;NextPM;74203;50.730;1.626;2024-03-08T05:56:34;59.15;43.75;39.40;586.50;589.00;589.00
84107;NextPM;74203;50.730;1.626;2024-03-08T05:58:42;59.85;44.30;39.90;594.00;595.50;596.00
84107;NextPM;74203;50.730;1.626;2024-03-08T06:00:50;59.05;43.70;39.35;588.50;591.50;591.50
84107;NextPM;74203;50.730;1.626;2024-03-08T06:02:57;59.70;44.20;39.80;589.50;592.00;592.00
84107;NextPM;74203;50.730;1.626;2024-03-08T06:05:05;60.05;44.40;40.00;599.00;601.50;601.50
84107;NextPM;74203;50.730;1.626;2024-03-08T06:07:15;59.45;44.00;39.65;586.00;588.50;588.50
84107;NextPM;74203;50.730;1.626;2024-03-08T06:09:22;59.80;44.20;39.85;594.50;596.50;597.00
84107;NextPM;74203;50.730;1.626;2024-03-08T06:11:30;58.90;43.60;39.25;583.00;585.00;586.00
84107;NextPM;74203;50.730;1.626;2024-03-08T06:13:38;59.95;44.40;39.95;594.00;596.00;596.50
84107;NextPM;74203;50.730;1.626;2024-03-08T06:15:45;59.40;43.90;39.55;583.50;586.00;586.00
84107;NextPM;74203;50.730;1.626;2024-03-08T06:17:52;60.05;44.40;40.00;594.50;596.00;596.50
84107;NextPM;74203;50.730;1.626;2024-03-08T06:20:00;59.00;43.65;39.35;588.00;590.50;590.50
84107;NextPM;74203;50.730;1.626;2024-03-08T06:22:08;59.85;44.30;39.90;597.50;600.00;601.00
84107;NextPM;74203;50.730;1.626;2024-03-08T06:24:15;60.80;45.00;40.55;600.00;602.50;602.50
84107;NextPM;74203;50.730;1.626;2024-03-08T06:26:23;59.55;44.05;39.70;596.50;598.50;599.00
84107;NextPM;74203;50.730;1.626;2024-03-08T06:28:30;59.90;44.30;39.95;599.50;602.00;602.00
84107;NextPM;74203;50.730;1.626;2024-03-08T06:30:38;58.20;43.05;38.75;578.00;580.00;581.00
84107;NextPM;74203;50.730;1.626;2024-03-08T06:32:46;59.60;44.10;39.70;587.50;589.50;590.50
84107;NextPM;74203;50.730;1.626;2024-03-08T06:34:53;61.10;45.20;40.70;600.50;603.00;603.00
84107;NextPM;74203;50.730;1.626;2024-03-08T06:37:01;59.95;44.35;39.90;592.00;594.00;594.50
84107;NextPM;74203;50.730;1.626;2024-03-08T06:39:08;60.05;44.40;40.05;595.50;598.00;598.50
84107;NextPM;74203;50.730;1.626;2024-03-08T06:41:16;59.80;44.20;39.85;596.50;598.50;599.50
84107;NextPM;74203;50.730;1.626;2024-03-08T06:43:24;58.60;43.35;39.05;586.00;587.50;588.00
84107;NextPM;74203;50.730;1.626;2024-03-08T06:45:31;60.60;44.80;40.40;600.50;602.50;603.00
84107;NextPM;74203;50.730;1.626;2024-03-08T06:47:39;59.50;44.00;39.70;589.50;592.00;592.00
84107;NextPM;74203;50.730;1.626;2024-03-08T06:49:46;61.15;45.25;40.80;603.50;605.50;606.00
84107;NextPM;74203;50.730;1.626;2024-03-08T06:51:54;59.15;43.75;39.40;585.00;586.50;587.50
84107;NextPM;74203;50.730;1.626;2024-03-08T06:54:01;59.30;43.90;39.55;589.00;591.50;592.00
84107;NextPM;74203;50.730;1.626;2024-03-08T06:56:09;59.70;44.20;39.75;589.50;591.50;591.50
84107;NextPM;74203;50.730;1.626;2024-03-08T06:58:17;59.50;44.00;39.60;590.50;592.50;593.50
84107;NextPM;74203;50.730;1.626;2024-03-08T07:00:24;60.40;44.70;40.25;604.50;606.00;607.00
84107;NextPM;74203;50.730;1.626;2024-03-08T07:02:31;60.25;44.60;40.15;604.00;606.00;606.50
84107;NextPM;74203;50.730;1.626;2024-03-08T07:04:39;59.40;44.00;39.60;589.00;591.00;591.00
84107;NextPM;74203;50.730;1.626;2024-03-08T07:06:46;58.55;43.25;39.00;578.00;581.00;581.50
84107;NextPM;74203;50.730;1.626;2024-03-08T07:08:54;59.75;44.20;39.80;593.50;595.50;596.00
84107;NextPM;74203;50.730;1.626;2024-03-08T07:11:01;58.85;43.50;39.20;584.50;587.00;587.00
84107;NextPM;74203;50.730;1.626;2024-03-08T07:13:09;59.60;44.10;39.75;591.50;594.00;594.00
84107;NextPM;74203;50.730;1.626;2024-03-08T07:15:17;59.95;44.40;39.95;598.00;600.50;600.50
84107;NextPM;74203;50.730;1.626;2024-03-08T07:17:25;59.90;44.35;39.95;589.50;591.50;591.50
84107;NextPM;74203;50.730;1.626;2024-03-08T07:19:32;59.40;43.95;39.55;591.00;594.00;594.00
84107;NextPM;74203;50.730;1.626;2024-03-08T07:21:39;58.85;43.50;39.20;583.50;586.50;586.50
84107;NextPM;74203;50.730;1.626;2024-03-08T07:23:47;59.05;43.70;39.40;592.50;595.00;595.50
84107;NextPM;74203;50.730;1.626;2024-03-08T07:25:54;58.95;43.60;39.25;588.50;590.50;590.50
84107;NextPM;74203;50.730;1.626;2024-03-08T07:28:02;58.25;43.10;38.85;575.00;578.00;579.00
84107;NextPM;74203;50.730;1.626;2024-03-08T07:30:11;59.85;44.30;39.90;594.50;597.00;597.00
84107;NextPM;74203;50.730;1.626;2024-03-08T07:32:19;58.90;43.60;39.25;588.00;589.50;590.00
84107;NextPM;74203;50.730;1.626;2024-03-08T07:34:26;57.75;42.75;38.50;574.50;577.00;577.50
84107;NextPM;74203;50.730;1.626;2024-03-08T07:36:34;59.05;43.65;39.35;583.00;585.00;585.00
84107;NextPM;74203;50.730;1.626;2024-03-08T07:38:42;58.70;43.40;39.10;582.50;584.50;585.00
84107;NextPM;74203;50.730;1.626;2024-03-08T07:40:49;56.25;41.60;37.50;560.00;562.00;563.00
84107;NextPM;74203;50.730;1.626;2024-03-08T07:42:56;57.50;42.50;38.30;570.50;573.00;573.00
84107;NextPM;74203;50.730;1.626;2024-03-08T07:45:05;57.10;42.20;38.05;561.50;563.50;563.50
84107;NextPM;74203;50.730;1.626;2024-03-08T07:47:14;58.55;43.30;39.05;581.00;583.00;583.50
84107;NextPM;74203;50.730;1.626;2024-03-08T07:49:21;57.95;42.85;38.60;575.00;577.50;577.50
84107;NextPM;74203;50.730;1.626;2024-03-08T07:51:29;57.25;42.35;38.20;565.00;567.00;567.50
84107;NextPM;74203;50.730;1.626;2024-03-08T07:53:36;56.45;41.75;37.65;561.00;563.00;563.00
84107;NextPM;74203;50.730;1.626;2024-03-08T07:55:44;57.20;42.30;38.15;562.50;564.50;564.50
84107;NextPM;74203;50.730;1.626;2024-03-08T07:57:51;56.60;41.85;37.75;565.00;567.00;567.50
84107;NextPM;74203;50.730;1.626;2024-03-08T07:59:59;56.40;41.70;37.60;562.00;564.50;565.00
84107;NextPM;74203;50.730;1.626;2024-03-08T08:02:07;57.50;42.55;38.30;569.50;572.00;572.00
84107;NextPM;74203;50.730;1.626;2024-03-08T08:04:15;58.15;43.00;38.70;578.50;580.50;581.00
84107;NextPM;74203;50.730;1.626;2024-03-08T08:06:22;58.00;42.95;38.70;575.00;577.50;578.00
84107;NextPM;74203;50.730;1.626;2024-03-08T08:08:29;55.95;41.35;37.25;560.50;563.00;563.50
84107;NextPM;74203;50.730;1.626;2024-03-08T08:10:37;55.40;41.00;36.90;548.00;550.00;550.50
84107;NextPM;74203;50.730;1.626;2024-03-08T08:12:44;57.75;42.75;38.45;569.50;571.50;572.50
84107;NextPM;74203;50.730;1.626;2024-03-08T08:14:52;57.25;42.35;38.15;570.00;572.00;572.50
84107;NextPM;74203;50.730;1.626;2024-03-08T08:17:00;57.05;42.20;38.00;562.00;564.00;564.00
84107;NextPM;74203;50.730;1.626;2024-03-08T08:19:07;57.90;42.80;38.55;575.00;577.50;578.00
84107;NextPM;74203;50.730;1.626;2024-03-08T08:21:14;57.65;42.70;38.40;567.50;570.00;570.50
84107;NextPM;74203;50.730;1.626;2024-03-08T08:23:22;57.55;42.55;38.35;563.00;565.50;565.50
84107;NextPM;74203;50.730;1.626;2024-03-08T08:25:29;57.15;42.25;38.10;564.50;566.50;567.00
84107;NextPM;74203;50.730;1.626;2024-03-08T08:27:37;60.70;44.90;40.45;604.00;606.50;607.50
84107;NextPM;74203;50.730;1.626;2024-03-08T08:29:45;59.55;44.05;39.70;594.00;596.50;596.50
84107;NextPM;74203;50.730;1.626;2024-03-08T08:31:52;58.15;43.05;38.75;578.00;580.00;580.50
84107;NextPM;74203;50.730;1.626;2024-03-08T08:34:02;56.90;42.10;37.95;569.00;570.50;571.50
84107;NextPM;74203;50.730;1.626;2024-03-08T08:36:09;55.80;41.30;37.15;556.50;558.50;558.50
84107;NextPM;74203;50.730;1.626;2024-03-08T08:38:17;57.25;42.40;38.15;569.50;571.50;572.00
84107;NextPM;74203;50.730;1.626;2024-03-08T08:40:24;58.00;42.90;38.65;579.00;580.50;581.00
84107;NextPM;74203;50.730;1.626;2024-03-08T08:42:32;57.20;42.30;38.10;569.50;572.00;572.00
84107;NextPM;74203;50.730;1.626;2024-03-08T08:44:39;57.55;42.60;38.40;570.50;572.50;573.50
84107;NextPM;74203;50.730;1.626;2024-03-08T08:46:47;56.00;41.40;37.30;558.50;560.50;561.50
84107;NextPM;74203;50.730;1.626;2024-03-08T08:48:54;54.85;43.10;37.10;548.50;551.50;551.50
84107;NextPM;74203;50.730;1.626;2024-03-08T08:51:02;56.75;42.00;37.85;560.50;562.50;563.50
84107;NextPM;74203;50.730;1.626;2024-03-08T08:53:09;56.90;42.05;37.90;562.50;564.50;565.00
84107;NextPM;74203;50.730;1.626;2024-03-08T08:55:17;56.90;42.05;37.90;565.00;567.00;568.00
84107;NextPM;74203;50.730;1.626;2024-03-08T08:57:24;56.60;41.85;37.70;562.00;563.50;564.00
84107;NextPM;74203;50.730;1.626;2024-03-08T08:59:32;60.80;47.90;38.15;569.50;572.00;572.50
84107;NextPM;74203;50.730;1.626;2024-03-08T09:01:39;57.15;47.40;38.30;567.00;568.50;569.00
84107;NextPM;74203;50.730;1.626;2024-03-08T09:03:47;60.10;49.70;38.30;565.50;567.50;568.00
84107;NextPM;74203;50.730;1.626;2024-03-08T09:05:54;57.75;42.75;38.50;571.00;573.00;573.00
84107;NextPM;74203;50.730;1.626;2024-03-08T09:08:02;56.80;42.00;37.80;565.00;566.50;567.00
84107;NextPM;74203;50.730;1.626;2024-03-08T09:10:10;57.85;42.80;38.55;574.50;576.50;577.00
84107;NextPM;74203;50.730;1.626;2024-03-08T09:12:19;56.55;41.80;37.70;563.00;565.00;565.50
84107;NextPM;74203;50.730;1.626;2024-03-08T09:14:26;60.60;43.80;38.00;570.50;572.50;573.50
84107;NextPM;74203;50.730;1.626;2024-03-08T09:16:34;58.05;49.55;37.40;563.00;565.00;565.50